createdAt,value
2023-01-08T00:00:10.754Z,985.34
2023-01-08T00:01:11.653Z,985.29
2023-01-08T00:02:12.544Z,985.37
2023-01-08T00:03:14.039Z,985.34
2023-01-08T00:04:15.330Z,985.35
2023-01-08T00:05:16.263Z,985.37
2023-01-08T00:06:17.500Z,985.29
2023-01-08T00:07:18.433Z,985.33
2023-01-08T00:08:19.290Z,985.34
2023-01-08T00:09:20.170Z,985.36
2023-01-08T00:10:21.049Z,985.22
2023-01-08T00:11:21.906Z,985.23
2023-01-08T00:12:22.767Z,985.16
2023-01-08T00:13:23.653Z,985.15
2023-01-08T00:14:24.526Z,985.15
2023-01-08T00:15:25.418Z,985.13
2023-01-08T00:16:26.611Z,985.09
2023-01-08T00:17:27.605Z,985.08
2023-01-08T00:18:28.476Z,985.05
2023-01-08T00:19:29.335Z,985.09
2023-01-08T00:20:30.198Z,985.17
2023-01-08T00:21:31.490Z,985.13
2023-01-08T00:22:32.529Z,985.14
2023-01-08T00:23:33.384Z,985.1
2023-01-08T00:24:34.262Z,985.04
2023-01-08T00:25:35.105Z,985.02
2023-01-08T00:26:35.940Z,985.03
2023-01-08T00:27:36.822Z,985.08
2023-01-08T00:28:37.701Z,985.11
2023-01-08T00:29:38.675Z,985.11
2023-01-08T00:30:40.103Z,985.15
2023-01-08T00:31:41.011Z,985.1
2023-01-08T00:32:41.887Z,985.08
2023-01-08T00:33:42.851Z,985.1
2023-01-08T00:34:43.972Z,985.04
2023-01-08T00:35:45.006Z,985.02
2023-01-08T00:36:46.333Z,985.03
2023-01-08T00:37:47.308Z,984.97
2023-01-08T00:38:48.189Z,985
2023-01-08T00:39:49.053Z,984.96
2023-01-08T00:40:49.923Z,984.91
2023-01-08T00:41:50.799Z,984.93
2023-01-08T00:42:51.687Z,984.9
2023-01-08T00:43:52.560Z,984.85
2023-01-08T00:44:53.437Z,984.74
2023-01-08T00:45:54.764Z,984.7
2023-01-08T00:46:55.725Z,984.72
2023-01-08T00:47:56.590Z,984.67
2023-01-08T00:48:57.459Z,984.69
2023-01-08T00:49:58.373Z,984.65
2023-01-08T00:50:59.237Z,984.62
2023-01-08T00:52:00.584Z,984.65
2023-01-08T00:53:01.520Z,984.62
2023-01-08T00:54:02.558Z,984.56
2023-01-08T00:55:03.671Z,984.52
2023-01-08T00:56:04.691Z,984.54
2023-01-08T00:57:05.546Z,984.61
2023-01-08T00:58:06.431Z,984.58
2023-01-08T00:59:07.283Z,984.63
2023-01-08T01:00:08.252Z,984.64
2023-01-08T01:01:09.843Z,984.67
2023-01-08T01:02:11.541Z,984.67
2023-01-08T01:03:12.516Z,984.62
2023-01-08T01:04:13.708Z,984.61
2023-01-08T01:05:14.697Z,984.62
2023-01-08T01:06:15.581Z,984.59
2023-01-08T01:07:16.938Z,984.53
2023-01-08T01:08:17.903Z,984.51
2023-01-08T01:09:18.765Z,984.53
2023-01-08T01:10:19.634Z,984.59
2023-01-08T01:11:20.521Z,984.54
2023-01-08T01:12:21.431Z,984.46
2023-01-08T01:13:22.295Z,984.49
2023-01-08T01:14:23.150Z,984.47
2023-01-08T01:15:24.025Z,984.45
2023-01-08T01:16:25.102Z,984.43
2023-01-08T01:17:26.125Z,984.47
2023-01-08T01:18:26.990Z,984.44
2023-01-08T01:19:27.872Z,984.41
2023-01-08T01:20:28.751Z,984.44
2023-01-08T01:21:29.660Z,984.42
2023-01-08T01:22:30.814Z,984.43
2023-01-08T01:23:31.727Z,984.43
2023-01-08T01:24:32.615Z,984.39
2023-01-08T01:25:33.483Z,984.36
2023-01-08T01:26:34.685Z,984.34
2023-01-08T01:27:36.013Z,984.43
2023-01-08T01:28:36.884Z,984.49
2023-01-08T01:29:37.753Z,984.47
2023-01-08T01:30:38.983Z,984.5
2023-01-08T01:31:39.956Z,984.43
2023-01-08T01:32:40.844Z,984.48
2023-01-08T01:33:41.728Z,984.52
2023-01-08T01:34:42.616Z,984.5
2023-01-08T01:35:43.510Z,984.45
2023-01-08T01:36:44.386Z,984.38
2023-01-08T01:37:45.724Z,984.4
2023-01-08T01:38:46.713Z,984.41
2023-01-08T01:39:47.609Z,984.53
2023-01-08T01:40:48.465Z,984.46
2023-01-08T01:41:49.339Z,984.51
2023-01-08T01:42:50.198Z,984.5
2023-01-08T01:43:51.171Z,984.51
2023-01-08T01:44:52.035Z,984.5
2023-01-08T01:45:53.091Z,984.57
2023-01-08T01:46:54.081Z,984.62
2023-01-08T01:47:54.935Z,984.64
2023-01-08T01:48:55.810Z,984.58
2023-01-08T01:49:56.715Z,984.52
2023-01-08T01:50:57.587Z,984.52
2023-01-08T01:51:58.436Z,984.58
2023-01-08T01:52:59.864Z,984.67
2023-01-08T01:54:00.790Z,984.69
2023-01-08T01:55:01.703Z,984.63
2023-01-08T01:56:02.602Z,984.59
2023-01-08T01:57:03.473Z,984.59
2023-01-08T01:58:04.398Z,984.55
2023-01-08T01:59:05.296Z,984.59
2023-01-08T02:00:06.184Z,984.59
2023-01-08T02:01:07.668Z,984.61
2023-01-08T02:02:09.180Z,984.56
2023-01-08T02:03:10.198Z,984.59
2023-01-08T02:04:11.604Z,984.61
2023-01-08T02:05:12.549Z,984.59
2023-01-08T02:06:13.408Z,984.64
2023-01-08T02:07:14.266Z,984.53
2023-01-08T02:08:15.629Z,984.58
2023-01-08T02:09:16.547Z,984.6
2023-01-08T02:10:17.416Z,984.55
2023-01-08T02:11:18.243Z,984.57
2023-01-08T02:12:19.118Z,984.54
2023-01-08T02:13:20.004Z,984.52
2023-01-08T02:14:20.852Z,984.5
2023-01-08T02:15:21.725Z,984.5
2023-01-08T02:16:22.859Z,984.49
2023-01-08T02:17:23.780Z,984.47
2023-01-08T02:18:24.658Z,984.46
2023-01-08T02:19:25.681Z,984.39
2023-01-08T02:20:26.553Z,984.48
2023-01-08T02:21:27.414Z,984.44
2023-01-08T02:22:28.294Z,984.39
2023-01-08T02:23:29.650Z,984.4
2023-01-08T02:24:30.646Z,984.41
2023-01-08T02:25:31.494Z,984.4
2023-01-08T02:26:32.530Z,984.41
2023-01-08T02:27:33.391Z,984.35
2023-01-08T02:28:34.267Z,984.31
2023-01-08T02:29:35.115Z,984.29
2023-01-08T02:30:36.149Z,984.26
2023-01-08T02:31:37.073Z,984.21
2023-01-08T02:32:37.962Z,984.17
2023-01-08T02:33:38.817Z,984.17
2023-01-08T02:34:39.681Z,984.16
2023-01-08T02:35:40.557Z,984.17
2023-01-08T02:36:41.467Z,984.11
2023-01-08T02:37:42.355Z,984.01
2023-01-08T02:38:43.776Z,984.04
2023-01-08T02:39:44.674Z,984.01
2023-01-08T02:40:45.539Z,983.98
2023-01-08T02:41:46.385Z,983.92
2023-01-08T02:42:47.279Z,983.89
2023-01-08T02:43:48.171Z,983.77
2023-01-08T02:44:49.077Z,983.81
2023-01-08T02:45:50.209Z,983.78
2023-01-08T02:46:51.124Z,983.79
2023-01-08T02:47:52.008Z,983.82
2023-01-08T02:48:52.903Z,983.82
2023-01-08T02:49:53.762Z,983.77
2023-01-08T02:50:54.642Z,983.79
2023-01-08T02:51:55.506Z,983.79
2023-01-08T02:52:56.366Z,983.84
2023-01-08T02:53:57.704Z,983.77
2023-01-08T02:54:58.663Z,983.74
2023-01-08T02:55:59.548Z,983.7
2023-01-08T02:57:00.428Z,983.7
2023-01-08T02:58:01.300Z,983.65
2023-01-08T02:59:02.183Z,983.63
2023-01-08T03:00:03.067Z,983.64
2023-01-08T03:01:04.103Z,983.6
2023-01-08T03:02:05.823Z,983.6
2023-01-08T03:03:06.827Z,983.58
2023-01-08T03:04:08.165Z,983.58
2023-01-08T03:05:09.177Z,983.59
2023-01-08T03:06:10.065Z,983.55
2023-01-08T03:07:10.916Z,983.52
2023-01-08T03:08:11.772Z,983.54
2023-01-08T03:09:12.957Z,983.51
2023-01-08T13:57:47.444Z,979.6
2023-01-08T13:58:48.461Z,979.53
2023-01-08T13:59:49.403Z,979.46
2023-01-08T14:00:50.686Z,979.48
2023-01-08T14:01:52.583Z,979.42
2023-01-08T14:02:53.948Z,979.42
2023-01-08T14:03:54.913Z,979.37
2023-01-08T14:04:56.002Z,979.39
2023-01-08T14:05:56.909Z,979.34
2023-01-08T14:06:57.807Z,979.31
2023-01-08T14:07:58.674Z,979.31
2023-01-08T14:08:59.568Z,979.3
2023-01-08T14:10:00.475Z,979.27
2023-01-08T14:11:01.385Z,979.22
2023-01-08T14:12:02.317Z,979.19
2023-01-08T14:13:03.358Z,979.16
2023-01-08T14:14:04.270Z,979.12
2023-01-08T14:15:05.207Z,979.13
2023-01-08T14:16:06.219Z,979.12
2023-01-08T14:17:07.122Z,979.16
2023-01-08T14:18:08.012Z,979.13
2023-01-08T14:19:08.879Z,979.13
2023-01-08T14:20:09.779Z,979.13
2023-01-08T14:21:10.637Z,979.13
2023-01-08T14:22:11.503Z,979.09
2023-01-08T14:23:12.407Z,979.09
2023-01-08T14:24:13.279Z,979.07
2023-01-08T14:25:14.174Z,979.02
2023-01-08T14:26:15.097Z,979.11
2023-01-08T14:27:15.954Z,979.06
2023-01-08T14:28:16.966Z,979.1
2023-01-08T14:29:17.869Z,979.11
2023-01-08T14:30:18.746Z,979.14
2023-01-08T14:31:19.791Z,979.19
2023-01-08T14:32:20.695Z,979.24
2023-01-08T14:33:21.568Z,979.22
2023-01-08T14:34:22.461Z,979.27
2023-01-08T14:35:23.351Z,979.27
2023-01-08T14:36:24.227Z,979.35
2023-01-08T14:37:25.124Z,979.29
2023-01-08T14:38:26.030Z,979.3
2023-01-08T14:39:26.877Z,979.23
2023-01-08T14:40:27.748Z,979.25
2023-01-08T14:41:28.586Z,979.2
2023-01-08T14:42:29.466Z,979.19
2023-01-08T14:43:30.583Z,979.27
2023-01-08T14:44:42.839Z,979.24
2023-01-08T14:45:34.531Z,979.31
2023-01-08T14:46:35.554Z,979.25
2023-01-08T14:47:36.453Z,979.22
2023-01-08T14:48:37.355Z,979.19
2023-01-08T14:49:38.267Z,979.16
2023-01-08T14:50:39.171Z,979.15
2023-01-08T14:51:40.047Z,979.15
2023-01-08T14:52:40.901Z,979.11
2023-01-08T14:53:41.760Z,979.17
2023-01-08T14:54:42.649Z,979.21
2023-01-08T14:55:43.599Z,979.21
2023-01-08T14:56:44.564Z,979.21
2023-01-08T14:57:45.436Z,979.23
2023-01-08T14:58:46.539Z,979.21
2023-01-08T14:59:47.448Z,979.2
2023-01-08T15:00:48.346Z,979.2
2023-01-08T15:01:49.800Z,979.17
2023-01-08T15:02:51.093Z,979.15
2023-01-08T15:03:52.092Z,979.09
2023-01-08T15:04:52.960Z,979.05
2023-01-08T15:05:53.842Z,979.03
2023-01-08T15:06:54.759Z,979.05
2023-01-08T15:07:55.622Z,979.07
2023-01-08T15:08:56.605Z,979.01
2023-01-08T15:09:57.470Z,979.02
2023-01-08T15:10:58.920Z,979.02
2023-01-08T15:11:59.827Z,979
2023-01-08T15:13:02.350Z,978.88
2023-01-08T15:14:03.400Z,978.84
2023-01-08T15:15:04.366Z,978.74
2023-01-08T15:16:05.796Z,978.76
2023-01-08T15:17:06.770Z,978.7
2023-01-08T15:18:07.632Z,978.72
2023-01-08T15:19:08.561Z,978.74
2023-01-08T15:20:09.431Z,978.73
2023-01-08T15:21:10.334Z,978.72
2023-01-08T15:22:11.219Z,978.75
2023-01-08T15:23:12.068Z,978.79
2023-01-08T15:24:12.972Z,978.76
2023-01-08T15:25:13.845Z,978.68
2023-01-08T15:26:14.717Z,978.68
2023-01-08T15:27:15.591Z,978.67
2023-01-08T15:28:16.474Z,978.61
2023-01-08T15:29:17.444Z,978.62
2023-01-08T15:30:18.343Z,978.6
2023-01-08T15:31:19.349Z,978.58
2023-01-08T15:32:20.340Z,978.59
2023-01-08T15:33:21.267Z,978.56
2023-01-08T15:34:22.129Z,978.58
2023-01-08T15:35:23.023Z,978.52
2023-01-08T15:36:23.926Z,978.48
2023-01-08T15:37:24.849Z,978.45
2023-01-08T15:38:25.710Z,978.42
2023-01-08T15:39:26.614Z,978.37
2023-01-08T15:40:27.485Z,978.32
2023-01-08T15:41:28.345Z,978.27
2023-01-08T15:42:29.203Z,978.28
2023-01-08T15:43:30.089Z,978.26
2023-01-08T15:44:31.040Z,978.32
